createdAt,value
2023-05-01T00:02:02.718Z,12.50
2023-05-01T00:07:06.760Z,12.60
2023-05-01T00:12:12.279Z,12.90
2023-05-01T00:17:17.161Z,13.50
2023-05-01T00:22:21.990Z,13.40
2023-05-01T00:27:27.839Z,13.10
2023-05-01T00:32:33.213Z,12.20
2023-05-01T00:37:38.018Z,15.40
2023-05-01T00:42:43.359Z,16.80
2023-05-01T00:47:49.078Z,18.60
2023-05-01T00:52:54.205Z,14.60
2023-05-01T00:58:01.361Z,15.30
2023-05-01T01:03:06.380Z,15.00
2023-05-01T01:08:58.104Z,14.30
2023-05-01T01:14:18.183Z,14.20
2023-05-01T01:20:11.454Z,12.30
2023-05-01T01:25:50.779Z,15.60
2023-05-01T01:31:29.335Z,13.80
2023-05-01T01:36:39.973Z,13.20
2023-05-01T01:41:51.212Z,13.00
2023-05-01T01:46:55.947Z,14.50
2023-05-01T01:52:02.809Z,14.60
2023-05-01T01:57:14.460Z,14.00
2023-05-01T02:02:22.065Z,15.70
2023-05-01T02:07:27.444Z,15.00
2023-05-01T02:12:33.009Z,13.90
2023-05-01T02:17:38.980Z,12.40
2023-05-01T02:22:47.685Z,12.60
2023-05-01T02:28:08.689Z,13.10
2023-05-01T02:33:13.340Z,15.60
2023-05-01T02:38:18.412Z,17.00
2023-05-01T02:43:24.793Z,15.20
2023-05-01T02:48:31.087Z,15.20
2023-05-01T02:53:36.987Z,14.00
2023-05-01T02:58:51.449Z,14.50
2023-05-01T03:03:56.336Z,14.10
2023-05-01T03:09:03.255Z,14.60
2023-05-01T03:14:07.115Z,14.30
2023-05-01T03:19:11.675Z,14.90
2023-05-01T03:24:17.483Z,15.90
2023-05-01T03:29:23.003Z,13.30
2023-05-01T03:34:28.653Z,12.80
2023-05-01T03:39:32.715Z,13.60
2023-05-01T03:45:03.760Z,15.40
2023-05-01T03:50:09.990Z,14.20
2023-05-01T03:55:18.006Z,15.20
2023-05-01T04:00:27.990Z,14.30
2023-05-01T04:05:34.609Z,13.40
2023-05-01T04:10:42.346Z,13.80
2023-05-01T04:15:47.479Z,13.70
2023-05-01T04:20:52.739Z,12.80
2023-05-01T04:25:58.588Z,12.00
2023-05-01T04:31:05.405Z,11.10
2023-05-01T04:36:10.396Z,10.60
2023-05-01T04:41:14.622Z,11.10
2023-05-01T04:46:22.480Z,9.70
2023-05-01T04:51:28.643Z,9.50
2023-05-01T04:56:33.212Z,9.30
2023-05-01T05:01:39.000Z,10.50
2023-05-01T05:06:44.902Z,10.20
2023-05-01T05:11:54.325Z,9.10
2023-05-01T05:17:00.724Z,10.60
2023-05-01T05:22:05.962Z,10.10
2023-05-01T05:27:16.437Z,9.40
2023-05-01T05:32:21.552Z,11.00
2023-05-01T05:37:26.524Z,8.50
2023-05-01T05:42:32.270Z,8.20
2023-05-01T05:47:41.297Z,8.70
2023-05-01T05:52:45.527Z,9.60
2023-05-01T05:57:50.205Z,8.30
2023-05-01T06:02:54.375Z,8.70
2023-05-01T06:08:01.860Z,9.40
2023-05-01T06:13:13.787Z,8.20
2023-05-01T06:18:24.078Z,8.60
2023-05-01T06:23:28.699Z,7.50
2023-05-01T06:28:55.321Z,8.10
2023-05-01T06:34:00.325Z,11.40
2023-05-01T06:39:24.263Z,7.70
2023-05-01T06:44:31.507Z,7.50
2023-05-01T06:49:39.384Z,7.10
2023-05-01T06:54:44.913Z,6.60
2023-05-01T06:59:49.626Z,7.50
2023-05-01T07:04:54.277Z,7.40
2023-05-01T07:09:59.526Z,8.00
2023-05-01T07:15:05.619Z,6.80
2023-05-01T07:20:11.893Z,6.40
2023-05-01T07:25:16.826Z,7.10
2023-05-01T07:30:21.798Z,7.60
2023-05-01T07:35:26.869Z,6.80
2023-05-01T07:40:34.716Z,5.80
2023-05-01T07:45:39.948Z,6.50
2023-05-01T07:50:47.271Z,5.10
2023-05-01T07:55:51.863Z,5.40
2023-05-01T08:00:57.102Z,4.80
2023-05-01T08:06:01.994Z,4.80
2023-05-01T08:11:06.175Z,4.40
2023-05-01T08:16:10.218Z,3.90
2023-05-01T08:21:14.203Z,5.50
2023-05-01T08:26:20.293Z,4.60
2023-05-01T08:31:26.363Z,4.70
2023-05-01T08:36:31.960Z,5.20
2023-05-01T08:41:37.486Z,4.80
2023-05-01T08:46:54.859Z,4.80
2023-05-01T08:51:59.576Z,5.10
2023-05-01T08:57:05.168Z,4.90
2023-05-01T09:02:11.092Z,5.00
2023-05-01T09:07:15.550Z,4.40
2023-05-01T09:12:31.080Z,4.40
2023-05-01T09:17:37.383Z,3.90
2023-05-01T09:22:41.735Z,4.20
2023-05-01T09:27:46.804Z,4.10
2023-05-01T09:33:15.447Z,4.10
2023-05-01T09:38:21.285Z,3.70
2023-05-01T09:43:27.757Z,3.80
2023-05-01T09:48:35.931Z,4.00
2023-05-01T09:53:42.323Z,3.90
2023-05-01T09:58:47.767Z,3.70
2023-05-01T10:03:56.996Z,3.70
2023-05-01T10:09:01.029Z,3.60
2023-05-01T10:14:09.825Z,3.60
2023-05-01T10:19:15.516Z,3.50
2023-05-01T10:24:20.718Z,3.90
2023-05-01T10:29:25.553Z,4.00
2023-05-01T10:34:31.684Z,4.20
2023-05-01T10:39:38.297Z,3.50
2023-05-01T10:44:43.161Z,5.80
2023-05-01T10:50:09.078Z,3.70
2023-05-01T10:55:37.322Z,3.90
2023-05-01T11:00:42.692Z,3.00
2023-05-01T11:06:17.246Z,3.50
2023-05-01T11:11:23.071Z,3.30
2023-05-01T11:16:46.805Z,2.80
2023-05-01T11:21:51.456Z,3.20
2023-05-01T11:26:56.348Z,3.30
2023-05-01T11:32:02.223Z,3.80
2023-05-01T11:37:06.677Z,3.10
2023-05-01T11:42:11.036Z,4.00
2023-05-01T11:47:15.260Z,4.50
2023-05-01T11:52:21.981Z,2.60
2023-05-01T11:57:28.934Z,3.30
2023-05-01T12:02:34.238Z,3.60
2023-05-01T12:07:38.506Z,3.30
2023-05-01T12:12:42.648Z,3.30
2023-05-01T12:17:48.514Z,3.60
2023-05-01T12:22:52.826Z,3.60
2023-05-01T12:27:56.785Z,3.40
2023-05-01T12:33:01.438Z,4.80
2023-05-01T12:38:16.482Z,3.40
2023-05-01T12:43:22.557Z,4.50
2023-05-01T12:48:26.621Z,4.60
2023-05-01T12:53:30.751Z,3.80
2023-05-01T12:58:38.621Z,3.60
2023-05-01T13:03:44.344Z,3.60
2023-05-01T13:08:48.418Z,3.60
2023-05-01T13:13:52.143Z,3.90
2023-05-01T13:18:56.024Z,3.70
2023-05-01T13:24:01.359Z,3.70
2023-05-01T13:29:06.115Z,4.70
2023-05-01T13:34:09.785Z,3.30
2023-05-01T13:39:21.256Z,3.30
2023-05-01T13:44:25.313Z,3.40
2023-05-01T13:49:29.109Z,2.90
2023-05-01T13:54:33.108Z,3.70
2023-05-01T13:59:44.984Z,3.60
2023-05-01T14:04:49.416Z,3.10
2023-05-01T14:09:55.962Z,3.50
2023-05-01T14:15:03.895Z,3.20
2023-05-01T14:20:09.133Z,2.70
2023-05-01T14:25:23.395Z,3.60
2023-05-01T14:30:33.946Z,3.10
2023-05-01T14:35:43.450Z,3.00
2023-05-01T14:40:48.197Z,3.00
2023-05-01T14:45:55.631Z,2.90
2023-05-01T14:50:59.870Z,3.10
2023-05-01T14:56:03.970Z,3.00
2023-05-01T15:01:07.922Z,3.40
2023-05-01T15:06:12.059Z,2.70
2023-05-01T15:11:17.171Z,2.40
2023-05-01T15:16:21.391Z,2.50
2023-05-01T15:21:25.315Z,2.60
2023-05-01T15:26:29.200Z,2.10
2023-05-01T15:31:33.133Z,2.30
2023-05-01T15:36:37.228Z,2.50
2023-05-01T15:41:41.447Z,2.30
2023-05-01T15:46:51.287Z,2.30
2023-05-01T15:51:55.552Z,2.30
2023-05-01T15:57:02.785Z,2.00
2023-05-01T16:02:09.256Z,2.30
2023-05-01T16:07:15.505Z,1.90
2023-05-01T16:12:24.687Z,2.40
2023-05-01T16:17:28.549Z,2.10
2023-05-01T16:22:33.197Z,2.10
2023-05-01T16:27:41.874Z,2.60
2023-05-01T16:32:46.615Z,2.20
2023-05-01T16:37:50.454Z,2.60
2023-05-01T16:42:56.499Z,2.20
2023-05-01T16:48:04.858Z,2.40
2023-05-01T16:53:12.054Z,2.90
2023-05-01T16:58:17.552Z,2.50
2023-05-01T17:03:21.490Z,3.30
2023-05-01T17:08:26.006Z,2.40
2023-05-01T17:13:30.244Z,3.00
2023-05-01T17:18:35.030Z,3.00
2023-05-01T17:23:42.353Z,3.50
2023-05-01T17:28:46.432Z,3.80
2023-05-01T17:33:51.064Z,4.20
2023-05-01T17:38:55.256Z,4.20
2023-05-01T17:43:59.731Z,5.00
2023-05-01T17:49:04.381Z,8.70
2023-05-01T17:54:10.969Z,7.20
2023-05-01T17:59:19.605Z,6.70
2023-05-01T18:04:25.234Z,10.00
2023-05-01T18:09:29.540Z,7.10
2023-05-01T18:14:34.583Z,7.90
2023-05-01T18:19:39.804Z,8.80
2023-05-01T18:24:44.780Z,10.10
2023-05-01T18:29:58.835Z,9.30
2023-05-01T18:35:05.687Z,8.40
2023-05-01T18:40:24.857Z,7.70
2023-05-01T18:45:31.992Z,6.00
2023-05-01T18:50:39.328Z,5.60
2023-05-01T18:55:49.866Z,5.50
2023-05-01T19:00:59.186Z,4.90
2023-05-01T19:06:05.677Z,4.90
2023-05-01T19:11:11.296Z,5.30
2023-05-01T19:16:18.196Z,4.90
2023-05-01T19:21:24.725Z,4.80
2023-05-01T19:26:30.739Z,4.60
2023-05-01T19:31:36.930Z,4.20
2023-05-01T19:36:46.339Z,4.40
2023-05-01T19:41:54.523Z,4.50
2023-05-01T19:47:02.240Z,6.00
2023-05-01T19:52:11.625Z,5.20
2023-05-01T19:57:19.236Z,6.40
2023-05-01T20:02:23.921Z,5.80
2023-05-01T20:07:29.991Z,5.90
2023-05-01T20:12:37.978Z,6.40
2023-05-01T20:17:44.119Z,5.90
2023-05-01T20:22:53.726Z,6.30
2023-05-01T20:27:57.728Z,6.20
2023-05-01T20:33:04.400Z,5.60
2023-05-01T20:38:08.349Z,6.90
2023-05-01T20:43:12.923Z,7.10
2023-05-01T20:48:19.014Z,6.50
2023-05-01T20:53:22.906Z,6.90
2023-05-01T20:58:26.980Z,6.70
2023-05-01T21:03:31.271Z,6.40
2023-05-01T21:08:35.811Z,6.30
2023-05-01T21:13:40.564Z,6.80
2023-05-01T21:18:45.493Z,7.10
2023-05-01T21:23:51.393Z,6.20
2023-05-01T21:28:56.559Z,6.20
2023-05-01T21:34:05.713Z,5.60
2023-05-01T21:39:12.480Z,6.50
2023-05-01T21:44:18.027Z,7.70
2023-05-01T21:49:40.062Z,7.50
2023-05-01T21:54:44.426Z,7.30
2023-05-01T21:59:49.157Z,7.80
2023-05-01T22:04:57.289Z,6.80
2023-05-01T22:10:02.263Z,7.00
2023-05-01T22:15:09.121Z,6.50
2023-05-01T22:20:14.124Z,6.20
2023-05-01T22:25:18.500Z,6.10
2023-05-01T22:30:23.101Z,5.80
2023-05-01T22:35:27.155Z,6.10
2023-05-01T22:40:31.902Z,6.20
2023-05-01T22:45:41.260Z,6.30
2023-05-01T22:50:45.603Z,6.10
2023-05-01T22:55:50.050Z,6.90
2023-05-01T23:00:54.050Z,7.00
2023-05-01T23:05:58.895Z,6.80
2023-05-01T23:11:03.410Z,7.70
2023-05-01T23:16:08.223Z,7.10
2023-05-01T23:21:18.368Z,6.80
2023-05-01T23:26:29.469Z,5.80
2023-05-01T23:31:34.845Z,6.50
2023-05-01T23:36:46.860Z,6.40
2023-05-01T23:41:51.138Z,6.00
2023-05-01T23:46:57.044Z,6.60
2023-05-01T23:52:02.168Z,6.70
2023-05-01T23:57:07.144Z,6.30
